La Grande, OR (97850)

10:19 PM PST on December 03, 2016 (GMT -0800)
La Grande | | Change Station

Elev 2835 ft 45.32 °N, 118.10 °W | Updated 15 seconds ago

Overcast
Overcast
35.8 °F
Feels Like 36 °F
N
0.7
Wind Variable Wind from WNW
Gusts 2.5 mph

Today
High -- | Low -- °F
--% Chance of Precip.
Yesterday
High -- | Low -- °F
Precip. -- in
Pressure 30.12 in
Visibility 10.0 miles
Clouds Overcast 7000 ft
Windchill 36 °F
Dew Point 29 °F
Humidity 77%
Rainfall 0.20 in
Snow Depth Not available.
7:14 AM 4:10 PM
Waxing Crescent, 20% visible
METAR KLGD 040615Z AUTO 19010KT 10SM OVC070 04/M04 A3012 RMK AO1
Pressure 30.12 in
Visibility 10.0 miles
Clouds Overcast 7000 ft
Windchill 36 °F
Dew Point 29 °F
Humidity 77%
Rainfall 0.20 in
Snow Depth Not available.
7:14 AM 4:10 PM
Waxing Crescent, 20% visible
METAR KLGD 040615Z AUTO 19010KT 10SM OVC070 04/M04 A3012 RMK AO1

10-Day Weather Forecast

Almanac

Astronomy

Dec. 03, 2016 Rise Set
Actual Time
Civil Twilight
Nautical Twilight
Astronomical Twilight
Moon
Length of Visible Light
Length of Day
Tomorrow will be .
, % of the Moon is Illuminated

Today's Extremes

State Highs State Lows

Community

WunderPhotos

Upload Photos

1,955,586 photos uploaded!

WunderBlog® & News

Nearby

Air Quality

  Air Quality AQ Index Pollutant
Not available.

Snow Depth

Station Depth Elevation

Earthquake Activity

City Distance Mag. Time & Date
Minimum magnitude displayed is 2.5.

Coastal Water Temperatures

Place Temperature

Stations

Nearby Weather Stations

Station Location Temp. Windchill Dew Point Humidity Wind Precip. Elev Updated Type
                   

Watches & Warnings

There are currently no watches in effect.